createdAt,value
2024-03-09T00:01:38.472Z,55.88
2024-03-09T00:04:05.812Z,56.18
2024-03-09T00:06:33.889Z,56.46
2024-03-09T00:09:01.023Z,56.24
2024-03-09T00:11:28.284Z,56.73
2024-03-09T00:13:56.076Z,56.39
2024-03-09T00:16:22.797Z,56.70
2024-03-09T00:18:49.595Z,56.51
2024-03-09T00:21:16.283Z,56.93
2024-03-09T00:23:43.579Z,56.81
2024-03-09T00:26:11.400Z,56.36
2024-03-09T00:28:42.200Z,56.38
2024-03-09T00:31:09.453Z,56.61
2024-03-09T00:33:39.403Z,57.02
2024-03-09T00:36:07.750Z,51.08
2024-03-09T00:38:35.630Z,56.46
2024-03-09T00:41:03.029Z,56.74
2024-03-09T00:43:29.720Z,56.71
2024-03-09T00:45:56.452Z,56.61
2024-03-09T00:48:23.642Z,56.91
2024-03-09T00:50:50.396Z,56.40
2024-03-09T00:53:18.277Z,56.79
2024-03-09T00:55:45.722Z,57.42
2024-03-09T00:58:14.242Z,57.13
2024-03-09T01:00:41.180Z,56.85
2024-03-09T01:03:07.815Z,57.16
2024-03-09T01:05:34.510Z,56.79
2024-03-09T01:08:01.962Z,56.54
2024-03-09T01:10:28.681Z,57.35
2024-03-09T01:12:56.769Z,57.05
2024-03-09T01:15:23.573Z,57.46
2024-03-09T01:17:50.473Z,57.32
2024-03-09T01:20:18.366Z,57.49
2024-03-09T01:22:46.398Z,57.38
2024-03-09T01:25:14.019Z,57.44
2024-03-09T01:27:41.147Z,57.46
2024-03-09T01:30:10.885Z,57.61
2024-03-09T01:32:41.648Z,57.39
2024-03-09T01:35:10.482Z,57.44
2024-03-09T01:37:37.584Z,57.56
2024-03-09T01:40:05.835Z,57.45
2024-03-09T01:42:32.479Z,57.63
2024-03-09T01:44:59.227Z,57.44
2024-03-09T01:47:27.418Z,57.21
2024-03-09T01:49:55.166Z,57.09
2024-03-09T01:52:25.054Z,57.24
2024-03-09T01:54:55.180Z,57.13
2024-03-09T01:57:22.119Z,57.37
2024-03-09T01:59:55.906Z,56.72
2024-03-09T02:02:26.289Z,56.28
2024-03-09T02:04:53.595Z,56.79
2024-03-09T02:07:20.395Z,56.56
2024-03-09T02:09:49.511Z,56.64
2024-03-09T02:12:18.574Z,56.60
2024-03-09T02:14:46.396Z,56.80
2024-03-09T02:17:14.011Z,56.42
2024-03-09T02:19:41.835Z,56.49
2024-03-09T02:22:14.272Z,55.33
2024-03-09T02:24:42.865Z,56.57
2024-03-09T02:27:10.729Z,56.95
2024-03-09T02:29:38.494Z,57.20
2024-03-09T02:32:05.762Z,56.83
2024-03-09T02:34:33.261Z,56.94
2024-03-09T02:37:00.305Z,57.44
2024-03-09T02:39:29.627Z,57.28
2024-03-09T02:41:59.631Z,56.97
2024-03-09T02:44:29.704Z,57.27
2024-03-09T02:46:56.841Z,57.00
2024-03-09T02:49:25.779Z,57.42
2024-03-09T02:51:54.755Z,56.99
2024-03-09T02:54:21.786Z,56.95
2024-03-09T02:56:50.728Z,57.18
2024-03-09T02:59:17.675Z,57.24
2024-03-09T03:01:45.173Z,57.20
2024-03-09T03:04:13.217Z,57.15
2024-03-09T03:06:40.106Z,57.34
2024-03-09T03:09:12.847Z,57.04
2024-03-09T03:11:42.487Z,57.27
2024-03-09T03:14:10.852Z,56.82
2024-03-09T03:16:38.020Z,57.13
2024-03-09T03:19:11.063Z,57.07
2024-03-09T03:21:42.311Z,57.07
2024-03-09T03:24:10.579Z,57.31
2024-03-09T03:26:38.043Z,57.18
2024-03-09T03:29:05.059Z,57.07
2024-03-09T03:31:31.984Z,57.55
2024-03-09T03:33:59.031Z,57.28
2024-03-09T03:36:26.142Z,57.48
2024-03-09T03:38:52.907Z,57.29
2024-03-09T03:41:23.749Z,57.47
2024-03-09T03:43:51.359Z,57.48
2024-03-09T03:46:18.422Z,57.93
2024-03-09T03:48:48.437Z,58.02
2024-03-09T03:51:16.966Z,57.95
2024-03-09T03:53:45.736Z,57.80
2024-03-09T03:56:16.031Z,57.69
2024-03-09T03:58:45.834Z,53.03
2024-03-09T04:01:12.602Z,57.02
2024-03-09T04:03:39.688Z,57.82
2024-03-09T04:06:07.584Z,58.03
2024-03-09T04:08:34.717Z,57.95
2024-03-09T04:11:03.493Z,57.78
2024-03-09T04:13:30.245Z,58.17
2024-03-09T04:15:57.305Z,57.89
2024-03-09T04:18:24.418Z,57.67
2024-03-09T04:20:51.353Z,57.89
2024-03-09T04:23:18.725Z,57.88
2024-03-09T04:25:57.522Z,57.24
2024-03-09T04:28:29.214Z,58.30
2024-03-09T04:30:59.907Z,57.75
2024-03-09T04:33:27.608Z,58.04
2024-03-09T04:35:54.609Z,57.52
2024-03-09T04:38:21.779Z,57.43
2024-03-09T04:40:51.059Z,57.17
2024-03-09T04:43:19.064Z,57.36
2024-03-09T04:45:47.052Z,57.76
2024-03-09T04:48:15.473Z,57.45
2024-03-09T04:50:48.539Z,57.54
2024-03-09T04:53:17.087Z,57.76
2024-03-09T04:55:52.957Z,57.94
2024-03-09T04:58:20.773Z,57.52
2024-03-09T05:00:47.811Z,57.64
2024-03-09T05:03:15.898Z,58.10
2024-03-09T05:05:44.525Z,57.96
2024-03-09T05:08:12.056Z,58.28
2024-03-09T05:10:39.011Z,58.09
2024-03-09T05:13:08.084Z,58.56
2024-03-09T05:15:35.608Z,58.45
2024-03-09T05:18:04.950Z,57.85
2024-03-09T05:20:31.851Z,58.38
2024-03-09T05:23:00.424Z,58.78
2024-03-09T05:25:28.043Z,58.80
2024-03-09T05:27:55.747Z,58.87
2024-03-09T05:30:26.896Z,58.91
2024-03-09T05:32:58.946Z,59.40
2024-03-09T05:35:30.861Z,58.94
2024-03-09T05:38:01.936Z,59.13
2024-03-09T05:40:31.200Z,59.35
2024-03-09T05:43:01.955Z,59.67
2024-03-09T05:45:29.291Z,60.44
2024-03-09T05:47:57.582Z,60.54
2024-03-09T05:50:32.331Z,60.46
2024-03-09T05:53:03.346Z,59.51
2024-03-09T05:55:30.516Z,60.20
2024-03-09T05:57:58.455Z,57.69
2024-03-09T06:00:31.359Z,57.23
2024-03-09T06:03:09.183Z,55.15
2024-03-09T06:05:36.345Z,53.58
2024-03-09T06:08:04.213Z,52.33
2024-03-09T06:10:31.459Z,49.19
2024-03-09T06:12:58.225Z,50.11
2024-03-09T06:15:26.536Z,48.87
2024-03-09T06:17:57.377Z,45.53
2024-03-09T06:20:33.281Z,43.46
2024-03-09T06:23:00.077Z,42.15
2024-03-09T06:25:27.716Z,39.75
2024-03-09T06:28:03.798Z,39.10
2024-03-09T06:30:32.505Z,37.81
2024-03-09T06:33:01.157Z,46.70
2024-03-09T06:35:29.780Z,35.49
2024-03-09T06:38:02.214Z,36.36
2024-03-09T06:40:33.911Z,32.02
2024-03-09T06:43:06.660Z,34.44
2024-03-09T06:45:35.266Z,30.30
2024-03-09T06:48:02.187Z,30.02
2024-03-09T06:50:30.454Z,28.75
2024-03-09T06:52:57.428Z,27.95
2024-03-09T06:55:27.784Z,26.10
2024-03-09T06:57:55.508Z,25.96
2024-03-09T07:00:23.313Z,25.75
2024-03-09T07:02:55.000Z,25.18
2024-03-09T07:05:22.240Z,24.43
2024-03-09T07:07:49.713Z,24.50
2024-03-09T07:10:16.470Z,23.58
2024-03-09T07:12:43.352Z,22.82
2024-03-09T07:15:18.031Z,25.91
2024-03-09T07:17:46.299Z,21.75
2024-03-09T07:20:14.866Z,22.33
2024-03-09T07:22:43.254Z,21.45
2024-03-09T07:25:17.086Z,23.93
2024-03-09T07:27:44.798Z,20.77
2024-03-09T07:30:15.625Z,21.05
2024-03-09T07:32:49.798Z,20.15
2024-03-09T07:35:20.759Z,22.11
2024-03-09T07:37:56.668Z,21.78
2024-03-09T07:40:27.588Z,19.57
2024-03-09T07:42:55.029Z,18.41
2024-03-09T07:45:27.909Z,18.58
2024-03-09T07:47:55.380Z,17.85
2024-03-09T07:50:24.387Z,18.44
2024-03-09T07:52:56.878Z,19.97
2024-03-09T07:55:27.058Z,18.01
2024-03-09T07:58:13.253Z,16.53
2024-03-09T08:00:50.043Z,16.11
2024-03-09T08:03:18.328Z,16.19
2024-03-09T08:05:45.221Z,16.53
2024-03-09T08:08:13.894Z,15.98
2024-03-09T08:10:46.783Z,15.77
2024-03-09T08:13:14.861Z,15.48
2024-03-09T08:15:41.871Z,14.83
2024-03-09T08:18:09.077Z,14.60
2024-03-09T08:20:36.279Z,14.60
2024-03-09T08:23:03.102Z,14.63
2024-03-09T08:25:29.988Z,14.55
2024-03-09T08:27:56.887Z,14.35
2024-03-09T08:30:23.700Z,13.99
2024-03-09T08:33:00.773Z,14.03
2024-03-09T08:35:34.243Z,13.79
2024-03-09T08:38:01.206Z,14.05
2024-03-09T08:40:28.286Z,14.03
2024-03-09T08:42:56.087Z,13.91
2024-03-09T08:45:25.039Z,13.70
2024-03-09T08:47:53.422Z,13.76
2024-03-09T08:50:22.882Z,13.94
2024-03-09T08:52:50.984Z,13.62
2024-03-09T08:55:19.952Z,13.80
2024-03-09T08:57:53.063Z,13.52
2024-03-09T09:00:26.704Z,13.09
2024-03-09T09:02:58.372Z,13.29
2024-03-09T09:05:29.638Z,13.43
2024-03-09T09:08:00.383Z,13.64
2024-03-09T09:10:27.521Z,13.48
2024-03-09T09:12:58.640Z,13.68
2024-03-09T09:15:26.558Z,13.50
2024-03-09T09:17:57.343Z,14.00
2024-03-09T09:20:25.582Z,13.79
2024-03-09T09:22:55.552Z,13.54
2024-03-09T09:25:30.842Z,13.90
2024-03-09T09:28:01.090Z,13.57
2024-03-09T09:30:27.944Z,13.25
2024-03-09T09:32:54.725Z,13.40
2024-03-09T09:35:22.120Z,12.96
2024-03-09T09:37:49.146Z,13.32
2024-03-09T09:40:16.978Z,13.31
2024-03-09T09:42:45.002Z,13.35
2024-03-09T09:45:22.951Z,15.12
2024-03-09T09:47:50.103Z,16.25
2024-03-09T09:50:20.541Z,13.38
2024-03-09T09:52:50.337Z,13.43
2024-03-09T09:55:20.777Z,12.87
2024-03-09T09:57:47.758Z,13.28
2024-03-09T10:00:15.756Z,12.85
2024-03-09T10:02:43.104Z,13.03
2024-03-09T10:05:14.400Z,14.13
2024-03-09T10:08:06.196Z,15.71
2024-03-09T10:10:36.846Z,13.17
2024-03-09T10:13:08.174Z,13.82
2024-03-09T10:15:38.085Z,12.58
2024-03-09T10:18:07.000Z,12.67
2024-03-09T10:20:36.226Z,12.96
2024-03-09T10:23:10.292Z,13.71
2024-03-09T10:25:37.599Z,13.18
2024-03-09T10:28:12.200Z,14.23
2024-03-09T10:30:39.964Z,12.38
2024-03-09T10:33:15.833Z,14.04
2024-03-09T10:35:45.744Z,12.93
2024-03-09T10:38:14.850Z,12.41
2024-03-09T10:40:43.076Z,12.75
2024-03-09T10:43:14.759Z,16.08
2024-03-09T10:45:42.650Z,13.08
2024-03-09T10:48:11.397Z,13.31
2024-03-09T10:50:53.086Z,14.80
2024-03-09T10:53:28.728Z,13.39
2024-03-09T10:56:16.622Z,14.32
2024-03-09T10:58:45.908Z,13.43
2024-03-09T11:01:16.993Z,13.69
2024-03-09T11:03:50.453Z,13.99
2024-03-09T11:06:22.662Z,14.01
2024-03-09T11:08:58.135Z,14.63
2024-03-09T11:11:28.089Z,14.38
2024-03-09T11:13:58.196Z,13.74
2024-03-09T11:16:28.263Z,13.58
2024-03-09T11:18:58.653Z,13.78
2024-03-09T11:21:35.767Z,14.12
2024-03-09T11:24:12.892Z,14.53
2024-03-09T11:26:53.642Z,14.42
2024-03-09T11:29:24.586Z,14.42
2024-03-09T11:32:13.358Z,15.10
2024-03-09T11:34:40.516Z,13.77
2024-03-09T11:37:10.128Z,13.32
2024-03-09T11:39:38.024Z,13.89
2024-03-09T11:42:10.357Z,14.12
2024-03-09T11:44:41.265Z,14.20
2024-03-09T11:47:08.743Z,14.48
2024-03-09T11:49:37.180Z,14.69
2024-03-09T11:52:15.626Z,15.06
2024-03-09T11:54:45.272Z,15.03
2024-03-09T11:57:12.060Z,14.85
2024-03-09T11:59:38.690Z,14.57
2024-03-09T12:02:08.790Z,15.49
2024-03-09T12:04:36.221Z,15.64
2024-03-09T12:07:07.624Z,15.78
2024-03-09T12:09:34.865Z,16.20
2024-03-09T12:12:13.950Z,16.67
2024-03-09T12:14:42.850Z,15.98
2024-03-09T12:17:11.605Z,16.29
2024-03-09T12:19:42.126Z,16.72
2024-03-09T12:22:10.682Z,16.62
2024-03-09T12:24:37.646Z,17.18
2024-03-09T12:27:04.643Z,17.50
2024-03-09T12:29:34.364Z,17.79
2024-03-09T12:32:02.806Z,18.04
2024-03-09T12:34:30.249Z,18.17
2024-03-09T12:36:59.276Z,18.95
2024-03-09T12:39:29.031Z,19.30
2024-03-09T12:41:57.535Z,19.33
2024-03-09T12:44:24.488Z,20.02
2024-03-09T12:46:51.519Z,20.47
2024-03-09T12:49:19.752Z,20.57
2024-03-09T12:51:48.010Z,20.94
2024-03-09T12:54:14.967Z,20.98
2024-03-09T12:56:43.264Z,21.10
2024-03-09T12:59:22.381Z,20.93
2024-03-09T13:01:51.280Z,21.57
2024-03-09T13:04:19.501Z,22.31
2024-03-09T13:06:46.239Z,22.53
2024-03-09T13:09:16.729Z,23.14
2024-03-09T13:11:44.830Z,23.12
2024-03-09T13:14:11.910Z,23.73
2024-03-09T13:16:42.188Z,24.14
2024-03-09T13:19:11.709Z,23.81
2024-03-09T13:21:39.181Z,22.09
2024-03-09T13:24:10.142Z,24.02
2024-03-09T13:26:38.345Z,24.44
2024-03-09T13:29:05.332Z,24.71
2024-03-09T13:31:34.419Z,24.94
2024-03-09T13:34:07.153Z,25.30
2024-03-09T13:36:33.913Z,25.38
2024-03-09T13:39:01.813Z,26.19
2024-03-09T13:41:29.158Z,25.94
2024-03-09T13:43:58.106Z,26.31
2024-03-09T13:46:25.449Z,26.42
2024-03-09T13:48:52.263Z,27.01
2024-03-09T13:51:19.123Z,27.24
2024-03-09T13:53:46.786Z,27.77
2024-03-09T13:56:21.109Z,27.55
2024-03-09T13:58:49.258Z,28.03
2024-03-09T14:01:21.193Z,28.20
2024-03-09T14:03:48.981Z,28.83
2024-03-09T14:06:17.129Z,29.11
2024-03-09T14:08:44.315Z,29.50
2024-03-09T14:11:12.765Z,29.43
2024-03-09T14:13:39.856Z,29.51
2024-03-09T14:16:09.659Z,29.74
2024-03-09T14:18:37.873Z,30.05
2024-03-09T14:21:12.557Z,30.69
2024-03-09T14:23:40.037Z,31.03
2024-03-09T14:26:13.182Z,30.84
2024-03-09T14:28:40.850Z,30.70
2024-03-09T14:31:09.989Z,30.95
2024-03-09T14:33:37.290Z,31.50
2024-03-09T14:36:08.089Z,30.82
2024-03-09T14:38:39.560Z,31.76
2024-03-09T14:41:15.275Z,31.86
2024-03-09T14:43:43.361Z,32.23
2024-03-09T14:46:12.869Z,32.89
2024-03-09T14:48:40.790Z,33.04
2024-03-09T14:51:12.338Z,33.01
2024-03-09T14:53:40.746Z,32.81
2024-03-09T14:56:11.424Z,33.38
2024-03-09T14:58:42.390Z,33.26
2024-03-09T15:01:14.038Z,33.93
2024-03-09T15:03:41.466Z,34.31
2024-03-09T15:06:11.838Z,34.31
2024-03-09T15:08:40.609Z,35.24
2024-03-09T15:11:16.115Z,34.93
2024-03-09T15:13:53.365Z,33.83
2024-03-09T15:16:25.858Z,35.37
2024-03-09T15:18:55.432Z,35.48
2024-03-09T15:21:24.287Z,35.57
2024-03-09T15:23:53.073Z,36.09
2024-03-09T15:26:29.938Z,36.16
2024-03-09T15:28:58.190Z,36.12
2024-03-09T15:31:25.385Z,36.36
2024-03-09T15:33:54.508Z,37.04
2024-03-09T15:36:21.857Z,37.11
2024-03-09T15:38:49.448Z,37.28
2024-03-09T15:41:17.152Z,37.63
2024-03-09T15:43:45.073Z,37.85
2024-03-09T15:46:12.898Z,37.84
2024-03-09T15:48:39.655Z,37.97
2024-03-09T15:51:06.682Z,38.20
2024-03-09T15:53:38.997Z,38.41
2024-03-09T15:56:08.677Z,38.49
2024-03-09T15:58:41.836Z,37.44
2024-03-09T16:01:10.233Z,38.30
2024-03-09T16:03:37.844Z,38.38
2024-03-09T16:06:05.288Z,38.70
2024-03-09T16:08:32.198Z,39.03
2024-03-09T16:10:59.314Z,38.95
2024-03-09T16:13:26.439Z,39.07
2024-03-09T16:15:53.363Z,39.37
2024-03-09T16:18:20.118Z,39.38
2024-03-09T16:20:49.038Z,39.21
2024-03-09T16:23:20.198Z,39.33
2024-03-09T16:25:50.146Z,39.53
2024-03-09T16:28:18.316Z,39.29
2024-03-09T16:30:46.132Z,39.43
2024-03-09T16:33:14.500Z,40.24
2024-03-09T16:35:43.457Z,40.08
2024-03-09T16:38:10.273Z,39.45
2024-03-09T16:40:39.946Z,39.47
2024-03-09T16:43:09.191Z,39.39
2024-03-09T16:45:37.272Z,40.29
2024-03-09T16:48:07.725Z,39.98
2024-03-09T16:50:35.162Z,40.42
2024-03-09T16:53:04.116Z,40.09
2024-03-09T16:55:38.371Z,40.48
2024-03-09T16:58:05.795Z,40.31
2024-03-09T17:00:37.476Z,40.17
2024-03-09T17:03:12.015Z,40.06
2024-03-09T17:05:40.576Z,40.43
2024-03-09T17:08:09.539Z,40.73
2024-03-09T17:10:38.237Z,40.87
2024-03-09T17:13:06.269Z,41.48
2024-03-09T17:15:35.645Z,41.40
2024-03-09T17:18:02.670Z,41.81
2024-03-09T17:20:31.246Z,41.35
2024-03-09T17:23:03.707Z,41.40
2024-03-09T17:25:35.480Z,42.06
2024-03-09T17:28:07.774Z,41.79
2024-03-09T17:30:36.722Z,41.47
2024-03-09T17:33:07.876Z,42.24
2024-03-09T17:35:36.240Z,42.02
2024-03-09T17:38:03.988Z,42.81
2024-03-09T17:40:32.320Z,43.01
2024-03-09T17:42:59.753Z,42.60
2024-03-09T17:45:29.882Z,42.22
2024-03-09T17:47:57.281Z,42.42
2024-03-09T17:50:28.309Z,43.56
2024-03-09T17:53:00.040Z,43.75
2024-03-09T17:55:30.692Z,43.78
2024-03-09T17:58:08.930Z,43.64
2024-03-09T18:00:37.213Z,44.28
2024-03-09T18:03:04.765Z,44.31
2024-03-09T18:05:35.620Z,43.92
2024-03-09T18:08:10.967Z,44.16
2024-03-09T18:10:43.394Z,44.35
2024-03-09T18:13:12.409Z,44.69
2024-03-09T18:15:41.152Z,45.30
2024-03-09T18:18:12.192Z,45.22
2024-03-09T18:20:42.515Z,45.48
2024-03-09T18:23:10.379Z,45.80
2024-03-09T18:25:37.151Z,46.12
2024-03-09T18:28:04.420Z,46.23
2024-03-09T18:30:32.124Z,46.25
2024-03-09T18:32:59.304Z,46.46
2024-03-09T18:35:26.410Z,46.14
2024-03-09T18:38:01.028Z,46.78
2024-03-09T18:40:29.458Z,46.79
2024-03-09T18:42:58.205Z,46.98
2024-03-09T18:45:25.318Z,47.08
2024-03-09T18:47:55.589Z,45.81
2024-03-09T18:50:26.282Z,47.10
2024-03-09T18:52:54.956Z,47.13
2024-03-09T18:55:21.801Z,47.17
2024-03-09T18:57:48.932Z,47.09
2024-03-09T19:00:19.374Z,46.61
2024-03-09T19:02:48.304Z,47.03
2024-03-09T19:05:19.456Z,47.31
2024-03-09T19:07:47.441Z,47.42
2024-03-09T19:10:14.766Z,46.90
2024-03-09T19:12:41.623Z,47.36
2024-03-09T19:15:14.408Z,47.29
2024-03-09T19:17:52.182Z,47.56
2024-03-09T19:20:28.166Z,47.44
2024-03-09T19:23:01.080Z,47.81
2024-03-09T19:25:28.267Z,47.28
2024-03-09T19:27:57.209Z,48.13
2024-03-09T19:30:27.495Z,47.46
2024-03-09T19:32:57.482Z,47.87
2024-03-09T19:35:27.000Z,47.90
2024-03-09T19:37:59.184Z,41.63
2024-03-09T19:40:27.868Z,47.25
2024-03-09T19:42:55.677Z,47.80
2024-03-09T19:45:24.928Z,47.56
2024-03-09T19:47:52.904Z,47.85
2024-03-09T19:50:23.317Z,47.70
2024-03-09T19:52:51.344Z,48.01
2024-03-09T19:55:21.041Z,48.03
2024-03-09T19:57:49.332Z,47.68
2024-03-09T20:00:24.888Z,48.34
2024-03-09T20:02:53.545Z,48.15
2024-03-09T20:05:24.801Z,48.68
2024-03-09T20:08:16.806Z,44.46
2024-03-09T20:10:44.454Z,48.67
2024-03-09T20:13:11.780Z,48.67
2024-03-09T20:15:38.751Z,48.94
2024-03-09T20:18:06.012Z,48.51
2024-03-09T20:20:37.438Z,48.87
2024-03-09T20:23:06.437Z,48.99
2024-03-09T20:25:33.506Z,48.76
2024-03-09T20:28:01.177Z,49.12
2024-03-09T20:30:29.197Z,49.22
2024-03-09T20:32:56.067Z,48.44
2024-03-09T20:35:23.012Z,49.14
2024-03-09T20:37:50.049Z,49.13
2024-03-09T20:40:18.118Z,49.89
2024-03-09T20:42:47.305Z,49.54
2024-03-09T20:45:16.297Z,48.85
2024-03-09T20:47:43.628Z,49.29
2024-03-09T20:50:17.377Z,49.43
2024-03-09T20:52:48.973Z,48.46
2024-03-09T20:55:15.809Z,49.64
2024-03-09T20:57:42.697Z,50.14
2024-03-09T21:00:19.287Z,49.79
2024-03-09T21:02:46.612Z,49.44
2024-03-09T21:05:13.885Z,49.68
2024-03-09T21:07:42.475Z,50.53
2024-03-09T21:10:10.590Z,49.22
2024-03-09T21:12:37.938Z,49.60
2024-03-09T21:15:05.710Z,49.55
2024-03-09T21:17:35.667Z,49.80
2024-03-09T21:20:05.751Z,49.71
2024-03-09T21:22:32.733Z,49.99
2024-03-09T21:24:59.605Z,49.54
2024-03-09T21:27:26.427Z,50.42
2024-03-09T21:29:54.312Z,50.51
2024-03-09T21:32:20.992Z,50.84
2024-03-09T21:34:47.819Z,50.41
2024-03-09T21:37:14.588Z,50.00
2024-03-09T21:39:41.344Z,50.44
2024-03-09T21:42:15.433Z,50.38
2024-03-09T21:44:42.468Z,50.56
2024-03-09T21:47:10.285Z,50.19
2024-03-09T21:49:37.225Z,50.67
2024-03-09T21:52:04.407Z,50.71
2024-03-09T21:54:31.282Z,50.55
2024-03-09T21:56:57.906Z,50.79
2024-03-09T21:59:26.570Z,50.28
2024-03-09T22:01:53.497Z,50.52
2024-03-09T22:04:20.354Z,50.33
2024-03-09T22:06:47.489Z,50.44
2024-03-09T22:09:14.560Z,50.71
2024-03-09T22:11:41.359Z,51.01
2024-03-09T22:14:08.237Z,51.18
2024-03-09T22:16:34.975Z,50.26
2024-03-09T22:19:02.329Z,50.84
2024-03-09T22:21:29.082Z,50.90
2024-03-09T22:23:55.793Z,50.79
2024-03-09T22:26:22.741Z,50.55
2024-03-09T22:28:51.338Z,51.05
2024-03-09T22:31:18.097Z,51.10
2024-03-09T22:33:44.949Z,50.78
2024-03-09T22:36:11.708Z,51.03
2024-03-09T22:38:38.713Z,51.12
2024-03-09T22:41:05.557Z,51.24
2024-03-09T22:43:32.281Z,51.52
2024-03-09T22:45:58.961Z,51.16
2024-03-09T22:48:31.501Z,51.63
2024-03-09T22:50:59.055Z,51.85
2024-03-09T22:53:26.107Z,51.13
2024-03-09T22:55:53.812Z,51.40
2024-03-09T22:58:20.551Z,51.51
2024-03-09T23:01:06.833Z,51.82
2024-03-09T23:03:33.856Z,51.61
2024-03-09T23:06:00.662Z,51.57
2024-03-09T23:08:28.798Z,51.48
2024-03-09T23:10:56.080Z,51.96
2024-03-09T23:13:23.272Z,51.81
2024-03-09T23:15:50.099Z,52.03
2024-03-09T23:18:19.016Z,51.61
2024-03-09T23:20:46.052Z,52.35
2024-03-09T23:23:13.528Z,52.16
2024-03-09T23:25:40.373Z,52.47
2024-03-09T23:28:10.419Z,51.68
2024-03-09T23:30:38.026Z,52.11
2024-03-09T23:33:06.086Z,52.19
2024-03-09T23:35:33.320Z,51.85
2024-03-09T23:38:00.049Z,52.30
2024-03-09T23:40:26.974Z,51.90
2024-03-09T23:42:56.214Z,51.61
2024-03-09T23:45:23.419Z,52.33
2024-03-09T23:47:51.549Z,52.23
2024-03-09T23:50:21.265Z,52.21
2024-03-09T23:52:48.967Z,51.94
2024-03-09T23:55:16.243Z,52.07
2024-03-09T23:57:43.178Z,52.62
